Air Quality Table

TIMESTAMP NO2 SO2 O3 PM10 PM2.5 TEMP HUM AIRPRES WS WD NO
2022-10-02 01:00 6.85 µg/m3 0.02 µg/m3 68.48 µg/m3 36.7 µg/m3 10.22 µg/m3 25.39 °C 83.86 % 1,010.74 mbar 3.84 m/s 200.87 Deg 1.73 µg/m3
2022-10-01 01:00 1.89 µg/m3 -0 µg/m3 66.73 µg/m3 27.92 µg/m3 10.22 µg/m3 25.84 °C 92.51 % 1,003.57 mbar 6.1 m/s 140.12 Deg 0.99 µg/m3
2022-09-30 01:00 10.42 µg/m3 0.09 µg/m3 66.75 µg/m3 26.19 µg/m3 12 µg/m3 24.7 °C 70.94 % 1,003.18 mbar 2.98 m/s 217.5 Deg 2.36 µg/m3
2022-09-29 01:00 16.89 µg/m3 0.05 µg/m3 62.42 µg/m3 20.55 µg/m3 6.95 µg/m3 23.85 °C 70.09 % 1,003.70 mbar 2.05 m/s 291.93 Deg 2.28 µg/m3
2022-09-28 01:00 18.69 µg/m3 0.05 µg/m3 62.74 µg/m3 25.31 µg/m3 7.46 µg/m3 24.79 °C 78.5 % 1,003.40 mbar 2.01 m/s 306.61 Deg 2.86 µg/m3
2022-09-27 01:00 9.27 µg/m3 0.01 µg/m3 70.01 µg/m3 29.8 µg/m3 8.84 µg/m3 26.14 °C 81.94 % 1,004.55 mbar 4.78 m/s 220.3 Deg 1.49 µg/m3
2022-09-26 01:00 11.98 µg/m3 0.01 µg/m3 74.98 µg/m3 14.56 µg/m3 5.87 µg/m3 25.17 °C 71.89 % 1,009.39 mbar 5.19 m/s 181.62 Deg 1.46 µg/m3
2022-09-25 01:00 6.15 µg/m3 0.03 µg/m3 84.45 µg/m3 15.6 µg/m3 4.71 µg/m3 23.02 °C 62.23 % 1,012.62 mbar 3.15 m/s 163.92 Deg 1.08 µg/m3
2022-09-24 01:00 3.6 µg/m3 -0.02 µg/m3 79.94 µg/m3 12.26 µg/m3 28.15 µg/m3 21.83 °C 71.2 % 1,009.03 mbar 3.66 m/s 216.77 Deg 1.32 µg/m3
2022-09-23 01:00 3.16 µg/m3 -0.02 µg/m3 75.23 µg/m3 14.86 µg/m3 6.6 µg/m3 21.89 °C 88.87 % 1,007.28 mbar 4.51 m/s 181.84 Deg 0.9 µg/m3
2022-09-22 01:00 16.66 µg/m3 0.08 µg/m3 67.28 µg/m3 22.24 µg/m3 7.39 µg/m3 25.53 °C 74.46 % 1,006.43 mbar 1.53 m/s 204.18 Deg 2.19 µg/m3
2022-09-21 01:00 15 µg/m3 0.1 µg/m3 70.8 µg/m3 31.22 µg/m3 9.63 µg/m3 25.91 °C 84.8 % 1,005.57 mbar 1.76 m/s 140.88 Deg 4.92 µg/m3
2022-09-20 01:00 17.43 µg/m3 0.06 µg/m3 71.65 µg/m3 29.51 µg/m3 8.15 µg/m3 25.86 °C 67.28 % 1,006.83 mbar 1.67 m/s 215.96 Deg 3.59 µg/m3
2022-09-19 01:00 9.86 µg/m3 0.05 µg/m3 75.74 µg/m3 27.2 µg/m3 8.05 µg/m3 26 °C 67.11 % 1,006.30 mbar 2.16 m/s 177.11 Deg 1.32 µg/m3
2022-09-18 01:00 11.6 µg/m3 0.32 µg/m3 57.38 µg/m3 26.31 µg/m3 7.86 µg/m3 27.44 °C 73.98 % 1,002.95 mbar 2.61 m/s 300.97 Deg 2.08 µg/m3
2022-09-17 01:00 4.76 µg/m3 0.02 µg/m3 62.95 µg/m3 17.32 µg/m3 6.08 µg/m3 27.12 °C 82 % 1,005.00 mbar 2.77 m/s 212.19 Deg 1.14 µg/m3
2022-09-16 01:00 7.04 µg/m3 0.01 µg/m3 59.2 µg/m3 22.86 µg/m3 7.38 µg/m3 26.75 °C 78.7 % 1,008.07 mbar 3.06 m/s 202.32 Deg 1.15 µg/m3
2022-09-15 01:00 9.56 µg/m3 0.04 µg/m3 52.2 µg/m3 21.52 µg/m3 7.23 µg/m3 26.71 °C 74.09 % 1,009.40 mbar 2.14 m/s 205.78 Deg 1.38 µg/m3
2022-09-14 01:00 14.74 µg/m3 0.05 µg/m3 56.91 µg/m3 19.32 µg/m3 7.46 µg/m3 26.74 °C 74.54 % 1,007.17 mbar 1.66 m/s 219.85 Deg 3.37 µg/m3
2022-09-13 01:00 11.73 µg/m3 0.05 µg/m3 64.32 µg/m3 22.11 µg/m3 7.46 µg/m3 27.01 °C 72.38 % 1,006.70 mbar 1.89 m/s 159.88 Deg 4.02 µg/m3
2022-09-12 01:00 11.8 µg/m3 0.04 µg/m3 53.69 µg/m3 19.29 µg/m3 5.79 µg/m3 28.54 °C 68.69 % 1,007.09 mbar 2.91 m/s 319.21 Deg 1.99 µg/m3
2022-09-11 01:00 9.43 µg/m3 0.03 µg/m3 58.21 µg/m3 40.07 µg/m3 13.71 µg/m3 28.7 °C 87.46 % 1,008.90 mbar 1.86 m/s 262.35 Deg 1.59 µg/m3
2022-09-10 01:00 2.42 µg/m3 0.03 µg/m3 65.7 µg/m3 27.54 µg/m3 9.28 µg/m3 28.12 °C 88.73 % 1,009.49 mbar 3.49 m/s 213.1 Deg 0.92 µg/m3
2022-09-09 01:00 3.15 µg/m3 0.01 µg/m3 67.57 µg/m3 19.5 µg/m3 7.74 µg/m3 27.74 °C 84.86 % 1,009.52 mbar 2.9 m/s 208.61 Deg 0.89 µg/m3
2022-09-08 01:00 4.16 µg/m3 0.01 µg/m3 84.75 µg/m3 18.4 µg/m3 7.59 µg/m3 27.31 °C 83.92 % 1,010.47 mbar 2.36 m/s 216.19 Deg 1.02 µg/m3
2022-09-07 01:00 4.78 µg/m3 0 µg/m3 68.96 µg/m3 16.41 µg/m3 6.47 µg/m3 26.86 °C 79.77 % 1,012.29 mbar 2.36 m/s 176.63 Deg 1.04 µg/m3
2022-09-06 01:00 5.32 µg/m3 0.03 µg/m3 67.35 µg/m3 31.12 µg/m3 10.83 µg/m3 27.5 °C 84.39 % 1,012.06 mbar 3.65 m/s 152.21 Deg 1.15 µg/m3
2022-09-05 01:00 8.23 µg/m3 0.05 µg/m3 59.84 µg/m3 32.25 µg/m3 9.52 µg/m3 29.11 °C 84.16 % 1,010.91 mbar 2.62 m/s 248.54 Deg 1.41 µg/m3
2022-09-04 01:00 10.24 µg/m3 0.03 µg/m3 62.65 µg/m3 33.06 µg/m3 11.53 µg/m3 27.57 °C 87.15 % 1,009.39 mbar 2.86 m/s 212.3 Deg 1.64 µg/m3

It is to be noted that the data is provisional and subject to quality assurance procedures. For validated data kindly refer your request to contact.air@era.org.mt